createdAt,value
2019-02-08T00:01:28.371Z,4.30
2019-02-08T00:03:57.418Z,3.90
2019-02-08T00:06:25.626Z,4.15
2019-02-08T00:08:54.045Z,4.25
2019-02-08T00:11:23.005Z,4.00
2019-02-08T00:13:51.657Z,3.90
2019-02-08T00:16:21.540Z,4.40
2019-02-08T00:18:51.583Z,4.20
2019-02-08T00:21:20.005Z,4.15
2019-02-08T00:23:48.870Z,4.55
2019-02-08T00:26:17.347Z,5.00
2019-02-08T00:28:45.456Z,4.50
2019-02-08T00:31:13.561Z,4.25
2019-02-08T00:33:42.644Z,4.40
2019-02-08T00:36:11.107Z,4.25
2019-02-08T00:38:40.056Z,4.03
2019-02-08T00:41:08.441Z,4.60
2019-02-08T00:43:38.189Z,4.30
2019-02-08T00:46:06.263Z,4.30
2019-02-08T00:48:35.013Z,4.40
2019-02-08T00:51:03.776Z,3.70
2019-02-08T00:53:33.588Z,3.35
2019-02-08T00:56:02.400Z,3.63
2019-02-08T00:58:30.403Z,3.20
2019-02-08T01:00:59.208Z,3.00
2019-02-08T01:03:27.314Z,2.70
2019-02-08T01:05:55.744Z,2.52
2019-02-08T01:08:24.401Z,2.85
2019-02-08T01:10:53.239Z,2.40
2019-02-08T01:13:21.652Z,2.90
2019-02-08T01:15:50.565Z,2.50
2019-02-08T01:18:19.451Z,2.10
2019-02-08T01:20:48.553Z,2.20
2019-02-08T01:23:17.380Z,2.50
2019-02-08T01:25:45.903Z,2.30
2019-02-08T01:28:14.558Z,2.50
2019-02-08T01:30:43.219Z,2.10
2019-02-08T01:33:11.818Z,2.30
2019-02-08T01:35:40.093Z,2.22
2019-02-08T01:38:08.596Z,2.40
2019-02-08T01:40:37.839Z,2.60
2019-02-08T01:43:06.520Z,2.40
2019-02-08T01:45:34.621Z,2.80
2019-02-08T01:48:02.980Z,2.80
2019-02-08T01:50:31.947Z,2.98
2019-02-08T01:53:00.811Z,3.00
2019-02-08T01:55:29.840Z,3.10
2019-02-08T01:57:58.203Z,2.98
2019-02-08T02:00:30.824Z,3.08
2019-02-08T02:03:01.627Z,3.77
2019-02-08T02:05:29.375Z,4.00
2019-02-08T02:07:58.037Z,4.00
2019-02-08T02:10:30.215Z,4.08
2019-02-08T02:12:58.335Z,4.30
2019-02-08T02:15:27.229Z,4.70
2019-02-08T02:17:56.359Z,4.50
2019-02-08T02:20:25.734Z,4.35
2019-02-08T02:22:54.856Z,4.03
2019-02-08T02:25:23.516Z,4.00
2019-02-08T02:27:51.644Z,3.80
2019-02-08T02:30:21.506Z,4.40
2019-02-08T02:32:50.399Z,4.55
2019-02-08T02:35:18.688Z,4.00
2019-02-08T02:37:47.119Z,4.47
2019-02-08T02:40:15.962Z,4.67
2019-02-08T02:42:44.823Z,4.40
2019-02-08T02:45:14.965Z,5.03
2019-02-08T02:47:43.072Z,5.30
2019-02-08T02:50:13.194Z,4.80
2019-02-08T02:52:43.261Z,5.60
2019-02-08T02:55:11.872Z,5.55
2019-02-08T02:57:40.327Z,5.85
2019-02-08T03:00:13.736Z,6.30
2019-02-08T03:02:42.411Z,6.78
2019-02-08T03:05:10.982Z,6.30
2019-02-08T03:07:39.475Z,6.40
2019-02-08T03:10:08.662Z,6.87
2019-02-08T03:12:37.216Z,6.92
2019-02-08T03:15:06.468Z,7.70
2019-02-08T03:17:34.693Z,7.53
2019-02-08T03:20:02.867Z,7.40
2019-02-08T03:22:31.716Z,7.62
2019-02-08T03:25:01.413Z,7.25
2019-02-08T03:27:30.300Z,7.20
2019-02-08T03:29:58.784Z,7.90
2019-02-08T03:32:28.370Z,8.63
2019-02-08T03:34:56.785Z,9.55
2019-02-08T03:37:26.248Z,9.70
2019-02-08T03:39:54.387Z,11.00
2019-02-08T03:42:22.889Z,10.88
2019-02-08T03:44:50.967Z,10.80
2019-02-08T03:47:19.392Z,11.10
2019-02-08T03:49:47.576Z,10.90
2019-02-08T03:52:15.773Z,10.53
2019-02-08T03:54:44.231Z,9.98
2019-02-08T03:57:13.471Z,10.20
2019-02-08T03:59:41.571Z,10.40
2019-02-08T04:02:09.635Z,10.03
2019-02-08T04:04:37.987Z,10.40
2019-02-08T04:07:06.989Z,10.68
2019-02-08T04:09:35.823Z,10.58
2019-02-08T04:12:04.291Z,10.00
2019-02-08T04:14:32.725Z,10.20
2019-02-08T04:17:01.121Z,10.78
2019-02-08T04:19:30.055Z,10.00
2019-02-08T04:21:58.680Z,10.45
2019-02-08T04:24:30.032Z,10.23
2019-02-08T04:26:57.644Z,10.00
2019-02-08T04:29:27.503Z,9.93
2019-02-08T04:31:55.625Z,10.58
2019-02-08T04:34:24.635Z,10.43
2019-02-08T04:36:52.804Z,10.00
2019-02-08T04:39:20.921Z,9.90
2019-02-08T04:41:49.049Z,10.30
2019-02-08T04:44:17.051Z,10.20
2019-02-08T04:46:45.200Z,10.18
2019-02-08T04:49:13.316Z,9.75
2019-02-08T04:51:41.949Z,9.63
2019-02-08T04:54:10.541Z,9.23
2019-02-08T04:56:38.928Z,9.48
2019-02-08T04:59:07.134Z,9.30
2019-02-08T05:01:35.473Z,9.95
2019-02-08T05:04:04.304Z,10.32
2019-02-08T05:06:32.580Z,9.85
2019-02-08T05:09:02.888Z,9.10
2019-02-08T05:11:31.180Z,9.95
2019-02-08T05:14:00.451Z,10.20
2019-02-08T05:16:28.598Z,9.90
2019-02-08T05:18:57.159Z,10.20
2019-02-08T05:21:25.211Z,10.55
2019-02-08T05:23:53.549Z,10.18
2019-02-08T05:26:21.664Z,10.10
2019-02-08T05:28:49.943Z,9.85
2019-02-08T05:31:18.894Z,9.80
2019-02-08T05:33:47.680Z,9.78
2019-02-08T05:36:16.567Z,9.70
2019-02-08T05:38:44.617Z,9.93
2019-02-08T05:41:13.417Z,9.40
2019-02-08T05:43:41.648Z,9.25
2019-02-08T05:46:10.579Z,9.33
2019-02-08T05:48:38.941Z,9.03
2019-02-08T05:51:07.009Z,9.10
2019-02-08T05:53:37.232Z,9.73
2019-02-08T05:56:05.776Z,9.50
2019-02-08T05:58:34.239Z,9.60
2019-02-08T06:01:02.715Z,9.40
2019-02-08T06:03:31.042Z,9.10
2019-02-08T06:05:59.582Z,9.50
2019-02-08T06:08:28.108Z,9.13
2019-02-08T06:10:56.486Z,9.30
2019-02-08T06:13:25.033Z,8.00
2019-02-08T06:15:53.189Z,8.40
2019-02-08T06:18:22.096Z,8.33
2019-02-08T06:20:51.191Z,9.00
2019-02-08T06:23:19.308Z,8.48
2019-02-08T06:25:48.152Z,8.43
2019-02-08T06:28:16.767Z,8.55
2019-02-08T06:30:45.930Z,8.20
2019-02-08T06:33:14.228Z,7.92
2019-02-08T06:35:42.778Z,9.20
2019-02-08T06:38:11.160Z,8.30
2019-02-08T06:40:41.420Z,8.20
2019-02-08T06:43:10.117Z,8.30
2019-02-08T06:45:38.504Z,8.00
2019-02-08T06:48:08.717Z,7.80
2019-02-08T06:50:37.097Z,7.67
2019-02-08T06:53:05.187Z,7.40
2019-02-08T06:55:33.248Z,6.87
2019-02-08T06:58:20.868Z,6.80
2019-02-08T07:01:23.972Z,7.00
2019-02-08T07:04:14.432Z,6.75
2019-02-08T07:07:02.745Z,7.00
2019-02-08T07:09:49.117Z,6.97
2019-02-08T07:12:34.965Z,6.20
2019-02-08T07:15:20.686Z,6.37
2019-02-08T07:18:10.752Z,5.87
2019-02-08T07:21:13.633Z,6.00
2019-02-08T07:23:48.361Z,6.45
2019-02-08T07:26:46.122Z,5.58
2019-02-08T07:29:47.362Z,5.55
2019-02-08T07:32:40.581Z,5.62
2019-02-08T07:35:31.584Z,5.65
2019-02-08T07:38:23.960Z,5.15
2019-02-08T07:41:19.746Z,5.70
2019-02-08T07:44:13.012Z,5.30
2019-02-08T07:46:53.255Z,5.10
2019-02-08T07:49:40.105Z,5.30
2019-02-08T07:52:26.199Z,4.50
2019-02-08T07:55:16.128Z,4.90
2019-02-08T07:58:03.304Z,4.30
2019-02-08T08:00:52.245Z,4.50
2019-02-08T08:03:30.111Z,4.08
2019-02-08T08:06:29.581Z,4.20
2019-02-08T08:09:14.480Z,4.15
2019-02-08T08:11:58.037Z,4.50
2019-02-08T08:14:45.191Z,4.30
2019-02-08T08:17:33.134Z,4.17
2019-02-08T08:20:23.627Z,5.65
2019-02-08T08:23:11.144Z,4.15
2019-02-08T08:26:15.421Z,4.00
2019-02-08T08:29:18.165Z,3.90
2019-02-08T08:31:55.803Z,4.20
2019-02-08T08:34:29.531Z,3.90
2019-02-08T08:37:19.834Z,4.08
2019-02-08T08:40:06.101Z,4.30
2019-02-08T08:43:08.765Z,4.65
2019-02-08T08:45:59.260Z,4.15
2019-02-08T08:48:52.501Z,4.58
2019-02-08T08:51:41.059Z,4.10
2019-02-08T08:54:19.596Z,4.20
2019-02-08T08:57:08.076Z,4.00
2019-02-08T09:00:01.398Z,3.98
2019-02-08T09:02:48.605Z,3.52
2019-02-08T09:05:23.140Z,3.52
2019-02-08T09:08:13.323Z,3.70
2019-02-08T09:10:59.669Z,3.70
2019-02-08T09:14:03.916Z,4.00
2019-02-08T09:16:41.212Z,3.70
2019-02-08T09:19:28.664Z,3.80
2019-02-08T09:22:14.899Z,3.80
2019-02-08T09:25:18.900Z,3.50
2019-02-08T09:27:59.336Z,3.50
2019-02-08T09:30:32.714Z,3.58
2019-02-08T09:33:38.273Z,3.80
2019-02-08T09:36:25.713Z,3.70
2019-02-08T09:39:22.196Z,3.50
2019-02-08T09:42:12.164Z,3.70
2019-02-08T09:44:56.599Z,3.22
2019-02-08T09:47:50.551Z,3.50
2019-02-08T09:50:36.423Z,3.20
2019-02-08T09:53:32.909Z,3.17
2019-02-08T09:56:14.521Z,3.05
2019-02-08T09:59:00.249Z,3.60
2019-02-08T10:02:05.567Z,3.70
2019-02-08T10:04:46.112Z,3.52
2019-02-08T10:07:25.854Z,3.75
2019-02-08T10:10:14.139Z,3.70
2019-02-08T10:13:10.441Z,3.17
2019-02-08T10:16:03.431Z,3.52
2019-02-08T10:18:49.194Z,3.98
2019-02-08T10:21:55.168Z,3.58
2019-02-08T10:24:41.340Z,3.37
2019-02-08T10:27:27.264Z,3.90
2019-02-08T10:30:13.077Z,3.12
2019-02-08T10:33:00.549Z,3.92
2019-02-08T10:35:54.344Z,3.70
2019-02-08T10:38:41.584Z,3.65
2019-02-08T10:41:43.304Z,3.60
2019-02-08T10:44:30.731Z,3.40
2019-02-08T10:47:18.356Z,3.00
2019-02-08T10:50:11.177Z,3.30
2019-02-08T10:53:17.087Z,3.40
2019-02-08T10:56:04.693Z,3.60
2019-02-08T10:58:50.867Z,3.10
2019-02-08T11:01:41.912Z,3.00
2019-02-08T11:04:22.436Z,3.52
2019-02-08T11:07:27.737Z,3.10
2019-02-08T11:10:10.913Z,3.10
2019-02-08T11:12:56.665Z,3.17
2019-02-08T11:15:43.109Z,4.05
2019-02-08T11:18:36.508Z,3.35
2019-02-08T11:21:05.287Z,3.22
2019-02-08T11:23:33.671Z,3.30
2019-02-08T11:26:02.250Z,3.15
2019-02-08T11:28:30.527Z,3.30
2019-02-08T11:30:58.559Z,2.90
2019-02-08T11:33:27.405Z,2.72
2019-02-08T11:35:56.105Z,3.00
2019-02-08T11:38:24.496Z,3.20
2019-02-08T11:40:52.842Z,2.90
2019-02-08T11:43:20.942Z,3.10
2019-02-08T11:45:49.351Z,3.20
2019-02-08T11:48:17.468Z,3.10
2019-02-08T11:50:45.776Z,3.00
2019-02-08T11:53:15.697Z,3.00
2019-02-08T11:55:43.709Z,2.70
2019-02-08T11:58:12.329Z,2.90
2019-02-08T12:00:45.513Z,2.77
2019-02-08T12:03:13.568Z,3.00
2019-02-08T12:05:42.163Z,2.50
2019-02-08T12:08:11.785Z,2.90
2019-02-08T12:10:40.937Z,2.80
2019-02-08T12:13:09.057Z,2.50
2019-02-08T12:15:37.456Z,2.52
2019-02-08T12:18:05.629Z,2.87
2019-02-08T12:20:34.032Z,2.52
2019-02-08T12:23:02.371Z,2.70
2019-02-08T12:25:30.459Z,2.50
2019-02-08T12:27:58.497Z,2.33
2019-02-08T12:30:31.489Z,2.30
2019-02-08T12:33:00.278Z,3.20
2019-02-08T12:35:29.001Z,5.83
2019-02-08T12:37:57.451Z,2.20
2019-02-08T12:40:25.841Z,2.27
2019-02-08T12:42:54.507Z,1.98
2019-02-08T12:45:22.633Z,1.90
2019-02-08T12:47:50.699Z,2.20
2019-02-08T12:50:18.837Z,2.10
2019-02-08T12:52:47.520Z,2.10
2019-02-08T12:55:15.680Z,2.00
2019-02-08T12:57:44.174Z,1.90
2019-02-08T13:00:14.619Z,2.30
2019-02-08T13:02:43.192Z,2.25
2019-02-08T13:05:11.540Z,2.25
2019-02-08T13:07:39.931Z,2.12
2019-02-08T13:10:08.836Z,2.50
2019-02-08T13:12:36.882Z,2.40
2019-02-08T13:15:06.382Z,2.00
2019-02-08T13:17:35.000Z,2.30
2019-02-08T13:20:03.041Z,2.30
2019-02-08T13:22:31.419Z,2.40
2019-02-08T13:24:59.485Z,2.10
2019-02-08T13:27:28.225Z,2.12
2019-02-08T13:29:56.580Z,2.10
2019-02-08T13:32:24.967Z,2.10
2019-02-08T13:34:53.027Z,1.90
2019-02-08T13:37:21.482Z,2.10
2019-02-08T13:39:49.800Z,2.10
2019-02-08T13:42:18.172Z,2.00
2019-02-08T13:44:46.211Z,2.10
2019-02-08T13:47:14.553Z,2.22
2019-02-08T13:49:42.897Z,2.02
2019-02-08T13:54:52.670Z,2.17
2019-02-08T13:57:21.045Z,2.00
2019-02-08T13:59:49.092Z,2.10
2019-02-08T14:02:17.409Z,2.20
2019-02-08T14:04:45.878Z,1.90
2019-02-08T14:07:13.899Z,1.87
2019-02-08T14:09:42.364Z,2.25
2019-02-08T14:12:10.735Z,26.33
2019-02-08T14:14:39.078Z,3.20
2019-02-08T14:17:07.717Z,2.25
2019-02-08T14:19:36.044Z,2.40
2019-02-08T14:22:04.565Z,2.25
2019-02-08T14:24:33.065Z,2.30
2019-02-08T14:27:08.321Z,2.20
2019-02-08T14:29:31.209Z,2.50
2019-02-08T14:31:59.603Z,2.60
2019-02-08T14:34:28.473Z,2.73
2019-02-08T14:36:56.546Z,2.30
2019-02-08T14:39:24.606Z,2.30
2019-02-08T14:41:52.933Z,2.60
2019-02-08T14:44:20.943Z,2.35
2019-02-08T14:46:49.349Z,2.40
2019-02-08T14:49:17.420Z,2.50
2019-02-08T14:51:45.442Z,2.50
2019-02-08T14:54:14.079Z,2.50
2019-02-08T14:56:42.096Z,2.60
2019-02-08T14:59:10.438Z,3.25
2019-02-08T15:01:38.829Z,2.80
2019-02-08T15:04:07.870Z,2.80
2019-02-08T15:06:36.029Z,2.73
2019-02-08T15:09:05.990Z,2.60
2019-02-08T15:11:34.109Z,2.50
2019-02-08T15:14:02.169Z,2.60
2019-02-08T15:16:30.525Z,2.70
2019-02-08T15:18:58.993Z,2.30
2019-02-08T15:21:27.724Z,3.00
2019-02-08T15:23:56.532Z,2.70
2019-02-08T15:26:24.719Z,2.70
2019-02-08T15:28:52.761Z,2.50
2019-02-08T15:31:20.847Z,2.65
2019-02-08T15:33:49.325Z,2.50
2019-02-08T15:36:17.751Z,2.50
2019-02-08T15:38:45.814Z,2.20
2019-02-08T15:41:14.213Z,2.58
2019-02-08T15:43:42.820Z,2.60
2019-02-08T15:46:10.864Z,2.50
2019-02-08T15:48:39.235Z,2.50
2019-02-08T15:51:07.928Z,2.50
2019-02-08T15:53:36.005Z,2.80
2019-02-08T15:56:11.835Z,2.27
2019-02-08T15:58:40.236Z,2.30
2019-02-08T16:01:10.044Z,2.70
2019-02-08T16:03:38.326Z,2.60
2019-02-08T16:06:07.094Z,2.50
2019-02-08T16:08:35.128Z,3.10
2019-02-08T16:11:03.141Z,3.30
2019-02-08T16:13:31.202Z,2.67
2019-02-08T16:15:59.229Z,2.20
2019-02-08T16:18:27.292Z,2.52
2019-02-08T16:20:55.470Z,2.65
2019-02-08T16:23:23.520Z,2.00
2019-02-08T16:25:51.693Z,2.35
2019-02-08T16:28:20.072Z,2.60
2019-02-08T16:30:48.448Z,2.10
2019-02-08T16:33:17.535Z,2.62
2019-02-08T16:35:45.889Z,2.60
2019-02-08T16:38:13.938Z,2.20
2019-02-08T16:40:42.414Z,3.75
2019-02-08T16:43:11.083Z,2.40
2019-02-08T16:45:39.539Z,2.40
2019-02-08T16:48:08.344Z,2.72
2019-02-08T16:50:36.409Z,3.13
2019-02-08T16:53:05.038Z,3.08
2019-02-08T16:55:33.236Z,3.10
2019-02-08T16:58:02.085Z,3.30
2019-02-08T17:00:31.471Z,3.30
2019-02-08T17:03:01.256Z,3.35
2019-02-08T17:05:29.673Z,3.30
2019-02-08T17:07:57.853Z,3.45
2019-02-08T17:10:26.294Z,3.47
2019-02-08T17:12:54.783Z,3.40
2019-02-08T17:15:23.472Z,3.52
2019-02-08T17:17:51.870Z,3.40
2019-02-08T17:20:21.609Z,3.80
2019-02-08T17:22:49.684Z,4.10
2019-02-08T17:25:17.832Z,4.10
2019-02-08T17:27:45.892Z,3.70
2019-02-08T17:30:15.794Z,3.98
2019-02-08T17:32:44.163Z,4.10
2019-02-08T17:35:12.801Z,4.42
2019-02-08T17:37:40.857Z,3.90
2019-02-08T17:40:10.412Z,4.25
2019-02-08T17:42:38.493Z,4.03
2019-02-08T17:45:07.612Z,4.20
2019-02-08T17:47:35.944Z,4.35
2019-02-08T17:50:05.388Z,4.40
2019-02-08T17:52:33.873Z,5.00
2019-02-08T17:55:01.926Z,4.62
2019-02-08T17:57:30.274Z,4.70
2019-02-08T17:59:58.613Z,4.60
2019-02-08T18:02:26.968Z,4.70
2019-02-08T18:04:58.060Z,5.00
2019-02-08T18:07:26.103Z,4.53
2019-02-08T18:09:54.668Z,4.80
2019-02-08T18:12:23.056Z,5.10
2019-02-08T18:14:51.448Z,4.53
2019-02-08T18:17:20.218Z,4.20
2019-02-08T18:19:48.724Z,4.40
2019-02-08T18:22:16.794Z,4.10
2019-02-08T18:24:45.207Z,4.50
2019-02-08T18:27:13.314Z,4.42
2019-02-08T18:29:41.378Z,4.70
2019-02-08T18:32:09.797Z,4.37
2019-02-08T18:34:37.883Z,3.77
2019-02-08T18:37:06.031Z,4.10
2019-02-08T18:39:34.433Z,4.20
2019-02-08T18:42:03.094Z,4.10
2019-02-08T18:44:31.116Z,4.30
2019-02-08T18:46:59.217Z,3.67
2019-02-08T18:49:27.649Z,4.20
2019-02-08T18:51:55.752Z,4.03
2019-02-08T18:54:24.156Z,3.85
2019-02-08T18:56:52.855Z,3.60
2019-02-08T18:59:20.893Z,4.22
2019-02-08T19:01:49.711Z,3.80
2019-02-08T19:04:18.108Z,3.50
2019-02-08T19:06:46.169Z,3.72
2019-02-08T19:09:14.558Z,3.50
2019-02-08T19:11:42.932Z,3.30
2019-02-08T19:14:10.992Z,3.40
2019-02-08T19:16:39.397Z,3.58
2019-02-08T19:19:07.423Z,3.60
2019-02-08T19:21:36.227Z,3.10
2019-02-08T19:24:05.034Z,3.10
2019-02-08T19:26:33.428Z,2.87
2019-02-08T19:29:01.496Z,3.20
2019-02-08T19:31:29.869Z,3.08
2019-02-08T19:33:57.939Z,2.90
2019-02-08T19:36:26.640Z,3.10
2019-02-08T19:38:55.001Z,2.80
2019-02-08T19:41:23.385Z,2.80
2019-02-08T19:43:51.868Z,3.00
2019-02-08T19:46:20.241Z,2.80
2019-02-08T19:48:48.653Z,3.10
2019-02-08T19:51:16.717Z,2.70
2019-02-08T19:53:45.087Z,2.80
2019-02-08T19:56:13.561Z,2.60
2019-02-08T19:58:41.604Z,2.60
2019-02-08T20:01:10.121Z,2.70
2019-02-08T20:03:38.137Z,2.50
2019-02-08T20:06:06.304Z,2.50
2019-02-08T20:08:34.618Z,2.47
2019-02-08T20:11:02.690Z,2.37
2019-02-08T20:13:31.090Z,2.55
2019-02-08T20:15:59.181Z,2.00
2019-02-08T20:18:27.192Z,2.20
2019-02-08T20:20:55.312Z,2.20
2019-02-08T20:23:23.674Z,2.35
2019-02-08T20:25:51.730Z,2.20
2019-02-08T20:28:19.755Z,2.12
2019-02-08T20:30:48.096Z,2.20
2019-02-08T20:33:16.812Z,2.42
2019-02-08T20:35:45.080Z,2.17
2019-02-08T20:38:13.128Z,2.10
2019-02-08T20:40:42.516Z,2.12
2019-02-08T20:43:10.921Z,2.10
2019-02-08T20:45:39.388Z,2.00
2019-02-08T20:48:08.896Z,2.10
2019-02-08T20:50:37.280Z,1.93
2019-02-08T20:53:05.678Z,2.30
2019-02-08T20:55:33.955Z,4.08
2019-02-08T20:58:02.337Z,2.87
2019-02-08T21:00:34.656Z,2.50
2019-02-08T21:03:03.099Z,2.40
2019-02-08T21:05:31.567Z,1.80
2019-02-08T21:07:59.707Z,2.02
2019-02-08T21:10:28.300Z,2.10
2019-02-08T21:12:56.728Z,1.90
2019-02-08T21:15:25.476Z,1.82
2019-02-08T21:17:54.170Z,2.00
2019-02-08T21:20:22.279Z,1.70
2019-02-08T21:22:50.356Z,2.07
2019-02-08T21:25:19.884Z,2.20
2019-02-08T21:27:48.301Z,2.22
2019-02-08T21:30:16.374Z,2.10
2019-02-08T21:32:44.407Z,2.20
2019-02-08T21:35:12.935Z,1.90
2019-02-08T21:37:41.714Z,1.70
2019-02-08T21:40:10.502Z,1.90
2019-02-08T21:42:39.398Z,2.10
2019-02-08T21:45:09.467Z,2.07
2019-02-08T21:47:37.499Z,1.80
2019-02-08T21:50:07.490Z,2.10
2019-02-08T21:52:35.867Z,1.93
2019-02-08T21:55:06.062Z,2.30
2019-02-08T21:57:34.376Z,1.90
2019-02-08T22:00:03.064Z,2.30
2019-02-08T22:02:31.690Z,1.80
2019-02-08T22:04:59.790Z,2.10
2019-02-08T22:07:28.428Z,1.70
2019-02-08T22:09:57.215Z,1.90
2019-02-08T22:12:25.570Z,2.20
2019-02-08T22:14:57.053Z,1.90
2019-02-08T22:17:25.363Z,2.20
2019-02-08T22:19:53.730Z,2.00
2019-02-08T22:22:21.747Z,2.12
2019-02-08T22:24:49.764Z,1.70
2019-02-08T22:27:18.209Z,2.12
2019-02-08T22:29:46.281Z,2.00
2019-02-08T22:32:14.327Z,2.00
2019-02-08T22:34:42.697Z,1.90
2019-02-08T22:37:11.108Z,2.17
2019-02-08T22:39:39.190Z,1.90
2019-02-08T22:42:07.253Z,2.15
2019-02-08T22:44:35.632Z,1.80
2019-02-08T22:47:03.717Z,2.20
2019-02-08T22:49:31.768Z,2.10
2019-02-08T22:52:00.164Z,1.90
2019-02-08T22:54:28.543Z,1.90
2019-02-08T22:56:56.911Z,2.20
2019-02-08T22:59:25.299Z,1.70
2019-02-08T23:01:53.843Z,1.90
2019-02-08T23:04:22.278Z,2.00
2019-02-08T23:06:51.047Z,1.80
2019-02-08T23:09:23.524Z,2.10
2019-02-08T23:11:51.613Z,2.00
2019-02-08T23:14:20.098Z,1.90
2019-02-08T23:16:48.458Z,1.80
2019-02-08T23:19:16.880Z,1.80
2019-02-08T23:21:45.619Z,2.10
2019-02-08T23:24:13.687Z,1.80
2019-02-08T23:26:41.971Z,1.90
2019-02-08T23:29:10.039Z,1.90
2019-02-08T23:31:38.463Z,1.90
2019-02-08T23:34:06.804Z,1.90
2019-02-08T23:36:34.828Z,2.10
2019-02-08T23:39:02.879Z,1.82
2019-02-08T23:41:30.917Z,2.00
2019-02-08T23:43:59.337Z,1.72
2019-02-08T23:46:28.090Z,2.10
2019-02-08T23:48:56.772Z,1.82
2019-02-08T23:51:25.085Z,1.95
2019-02-08T23:53:53.105Z,2.08
2019-02-08T23:56:21.501Z,1.90
2019-02-08T23:58:49.524Z,2.00
